Time;durP1;ratioP1;P1;durP2;ratioP2;P2;SDS_P1;SDS_P2;PMS_P1;PMS_P2;Temp;Humidity;BMP_temperature;BMP_pressure;BME280_temperature;BME280_humidity;BME280_pressure;Samples;Min_cycle;Max_cycle;Signal;HPM_P1;HPM_P2
2024/02/15 00:02:35;;;;;;;0.37;0.37;;;9.40;99.90;;;;;;4425212;32;20128;-60
2024/02/15 00:05:01;;;;;;;1.87;1.12;;;9.50;99.90;;;;;;4424789;32;20081;-57
2024/02/15 00:07:26;;;;;;;0.55;0.55;;;9.50;99.90;;;;;;4424272;32;20474;-58
2024/02/15 00:09:53;;;;;;;0.57;0.57;;;9.50;99.90;;;;;;4427236;32;20053;-56
2024/02/15 00:12:19;;;;;;;0.40;0.40;;;9.50;99.90;;;;;;4425719;32;20073;-57
2024/02/15 00:14:44;;;;;;;0.50;0.50;;;9.50;99.90;;;;;;4418757;32;20078;-57
2024/02/15 00:17:11;;;;;;;0.68;0.68;;;9.50;99.90;;;;;;4427581;32;20407;-58
2024/02/15 00:19:38;;;;;;;0.57;0.57;;;9.50;99.90;;;;;;4425811;32;20069;-62
2024/02/15 00:22:04;;;;;;;0.50;0.50;;;9.50;99.90;;;;;;4407124;32;20088;-58
2024/02/15 00:24:30;;;;;;;2.47;0.65;;;9.50;99.90;;;;;;4428273;32;20065;-58
2024/02/15 00:26:56;;;;;;;0.50;0.50;;;9.60;99.90;;;;;;4427064;32;20143;-58
2024/02/15 00:29:22;;;;;;;1.25;0.65;;;9.60;99.90;;;;;;4427194;32;20061;-58
2024/02/15 00:31:47;;;;;;;3.25;0.93;;;9.60;99.90;;;;;;4428159;32;20754;-58
2024/02/15 00:34:13;;;;;;;13.90;2.08;;;9.60;99.90;;;;;;4419011;32;20065;-58
2024/02/15 00:36:43;;;;;;;0.47;0.47;;;9.60;99.90;;;;;;4424648;32;20073;-59
2024/02/15 00:39:09;;;;;;;0.40;0.40;;;9.50;99.90;;;;;;4421531;32;20512;-59
2024/02/15 00:41:35;;;;;;;0.40;0.40;;;9.60;99.90;;;;;;4426384;32;20056;-58
2024/02/15 00:44:00;;;;;;;0.73;0.70;;;9.60;99.90;;;;;;4427492;32;20556;-59
2024/02/15 00:46:28;;;;;;;1.27;0.70;;;9.60;99.90;;;;;;4425751;32;20442;-58
2024/02/15 00:48:54;;;;;;;0.40;0.40;;;9.70;99.90;;;;;;4426738;32;20069;-59
2024/02/15 00:51:20;;;;;;;0.50;0.50;;;9.60;99.90;;;;;;4426897;32;20084;-57
2024/02/15 00:53:45;;;;;;;0.62;0.52;;;9.60;99.90;;;;;;4427152;32;20073;-59
2024/02/15 00:56:11;;;;;;;1.02;0.60;;;9.70;99.90;;;;;;4429955;32;20139;-58
2024/02/15 00:58:36;;;;;;;0.73;0.60;;;9.60;99.90;;;;;;4427383;32;20501;-58
2024/02/15 01:01:02;;;;;;;0.40;0.40;;;9.60;99.90;;;;;;4424061;32;20085;-57
2024/02/15 01:03:28;;;;;;;1.45;0.70;;;9.60;99.90;;;;;;4429382;32;20134;-57
2024/02/15 01:05:53;;;;;;;0.40;0.40;;;9.50;99.90;;;;;;4416401;32;20105;-58
2024/02/15 01:08:20;;;;;;;0.30;0.30;;;9.60;99.90;;;;;;4428840;32;20435;-58
2024/02/15 01:10:45;;;;;;;0.30;0.30;;;9.60;99.90;;;;;;4426385;32;20533;-58
2024/02/15 01:13:12;;;;;;;3.12;1.10;;;9.60;99.90;;;;;;4427333;32;20124;-57
2024/02/15 01:15:39;;;;;;;0.43;0.43;;;9.60;99.90;;;;;;4424467;32;20085;-58
2024/02/15 01:18:04;;;;;;;0.80;0.60;;;9.50;99.90;;;;;;4426443;32;20190;-57
2024/02/15 01:20:30;;;;;;;0.50;0.50;;;9.50;99.90;;;;;;4426446;32;20120;-59
2024/02/15 01:22:56;;;;;;;0.68;0.50;;;9.50;99.90;;;;;;4427087;32;20514;-61
2024/02/15 01:25:21;;;;;;;0.45;0.45;;;9.50;99.90;;;;;;4425199;32;20141;-57
2024/02/15 01:27:47;;;;;;;0.47;0.47;;;9.50;99.90;;;;;;4428243;32;20073;-57
2024/02/15 01:30:13;;;;;;;0.55;0.55;;;9.40;99.90;;;;;;4427120;32;20529;-57
2024/02/15 01:32:41;;;;;;;0.40;0.40;;;9.40;99.90;;;;;;4430625;32;20127;-58
2024/02/15 01:35:07;;;;;;;0.40;0.40;;;9.50;99.90;;;;;;4427553;32;20097;-58
2024/02/15 01:37:33;;;;;;;2.90;0.85;;;9.50;99.90;;;;;;4416457;32;20576;-59
2024/02/15 01:39:58;;;;;;;0.40;0.40;;;9.40;99.90;;;;;;4427581;32;20073;-58
2024/02/15 01:42:24;;;;;;;0.70;0.47;;;9.50;99.90;;;;;;4431381;32;20407;-59
2024/02/15 01:44:50;;;;;;;0.40;0.40;;;9.50;99.90;;;;;;4430656;32;20488;-59
2024/02/15 01:47:19;;;;;;;1.75;0.73;;;9.50;99.90;;;;;;4428890;32;20077;-58
2024/02/15 01:49:44;;;;;;;0.47;0.47;;;9.50;99.90;;;;;;4422167;32;20081;-58
2024/02/15 01:52:10;;;;;;;1.45;0.65;;;9.50;99.90;;;;;;4428650;32;20546;-57
2024/02/15 01:54:38;;;;;;;0.60;0.60;;;9.50;99.90;;;;;;4418551;32;20097;-57
2024/02/15 01:57:04;;;;;;;0.43;0.43;;;9.50;99.90;;;;;;4419859;32;20537;-57
2024/02/15 01:59:31;;;;;;;0.80;0.80;;;9.50;99.90;;;;;;4414929;32;21003;-59
2024/02/15 02:01:56;;;;;;;0.52;0.52;;;9.50;99.90;;;;;;4409230;32;20065;-57
2024/02/15 02:04:22;;;;;;;9.82;1.15;;;9.50;99.90;;;;;;4418562;32;20094;-56
2024/02/15 02:06:48;;;;;;;0.40;0.40;;;9.50;99.90;;;;;;4415813;32;20077;-57
2024/02/15 02:09:14;;;;;;;0.45;0.37;;;9.50;99.90;;;;;;4421119;32;20100;-58
2024/02/15 02:11:40;;;;;;;1.23;0.55;;;9.50;99.90;;;;;;4415364;32;20553;-58
2024/02/15 02:14:06;;;;;;;5.93;1.10;;;9.50;99.90;;;;;;4418421;32;20089;-57
2024/02/15 02:16:32;;;;;;;0.40;0.40;;;9.50;99.90;;;;;;4416621;32;20443;-59
2024/02/15 02:18:58;;;;;;;0.50;0.50;;;9.50;99.90;;;;;;4419786;32;20097;-59
2024/02/15 02:21:25;;;;;;;1.05;0.77;;;9.50;99.90;;;;;;4418071;32;20073;-57
2024/02/15 02:24:00;;;;;;;0.50;0.50;;;9.50;99.90;;;;;;4419307;32;20536;-56
2024/02/15 02:26:26;;;;;;;1.00;0.57;;;9.50;99.90;;;;;;4418370;32;20512;-59
2024/02/15 02:28:54;;;;;;;0.70;0.55;;;9.50;99.90;;;;;;4420227;32;20559;-59
2024/02/15 02:31:22;;;;;;;0.57;0.57;;;9.60;99.90;;;;;;4418560;32;21213;-58
2024/02/15 02:33:52;;;;;;;0.62;0.62;;;9.50;99.90;;;;;;4417482;32;20085;-57
2024/02/15 02:36:18;;;;;;;2.05;1.00;;;9.50;99.90;;;;;;4416124;32;20061;-57
2024/02/15 02:38:45;;;;;;;0.80;0.80;;;9.50;99.90;;;;;;4415822;32;20069;-58
2024/02/15 02:41:12;;;;;;;0.37;0.37;;;9.50;99.90;;;;;;4411879;32;21254;-58
2024/02/15 02:43:39;;;;;;;0.40;0.40;;;9.50;99.90;;;;;;4415042;32;20836;-58
2024/02/15 02:46:05;;;;;;;0.65;0.65;;;9.50;99.90;;;;;;4416398;32;20154;-57
2024/02/15 02:48:31;;;;;;;0.52;0.52;;;9.60;99.90;;;;;;4416950;32;20069;-58
2024/02/15 02:50:57;;;;;;;0.70;0.70;;;9.60;99.90;;;;;;4418420;32;20069;-58
2024/02/15 02:53:23;;;;;;;0.60;0.60;;;9.60;99.90;;;;;;4429596;32;20528;-58
2024/02/15 02:55:49;;;;;;;0.70;0.70;;;9.60;99.90;;;;;;4430420;32;20532;-58
2024/02/15 02:58:15;;;;;;;0.50;0.50;;;9.60;99.90;;;;;;4417767;32;20085;-58
2024/02/15 03:00:40;;;;;;;0.40;0.40;;;9.60;99.90;;;;;;4429726;32;20585;-58
2024/02/15 03:03:06;;;;;;;0.68;0.68;;;9.60;99.90;;;;;;4425120;32;20144;-58
2024/02/15 03:05:31;;;;;;;1.02;0.80;;;9.60;99.90;;;;;;4405412;32;20148;-58
2024/02/15 03:07:57;;;;;;;0.70;0.50;;;9.60;99.90;;;;;;4430543;32;20077;-59
2024/02/15 03:10:24;;;;;;;0.80;0.70;;;9.60;99.90;;;;;;4428969;32;20086;-58
2024/02/15 03:12:49;;;;;;;0.73;0.73;;;9.60;99.90;;;;;;4426357;32;20790;-58
2024/02/15 03:15:16;;;;;;;0.50;0.50;;;9.60;99.90;;;;;;4426432;32;20124;-58
2024/02/15 03:17:43;;;;;;;0.85;0.85;;;9.60;99.90;;;;;;4427839;32;20505;-58
2024/02/15 03:20:12;;;;;;;0.50;0.50;;;9.60;99.90;;;;;;4403132;32;20069;-57
2024/02/15 03:22:38;;;;;;;0.70;0.70;;;9.60;99.90;;;;;;4427590;32;20085;-57
2024/02/15 03:25:07;;;;;;;0.60;0.60;;;9.60;99.90;;;;;;4430580;32;20227;-58
2024/02/15 03:27:34;;;;;;;0.60;0.60;;;9.60;99.90;;;;;;4426691;32;20084;-58
2024/02/15 03:30:00;;;;;;;1.85;1.00;;;9.60;99.90;;;;;;4425926;32;20592;-59
2024/02/15 03:32:26;;;;;;;1.12;1.02;;;9.60;99.90;;;;;;4426022;32;20129;-60
2024/02/15 03:34:51;;;;;;;0.57;0.57;;;9.60;99.90;;;;;;4429085;32;20517;-58
2024/02/15 03:37:18;;;;;;;0.47;0.47;;;9.60;99.90;;;;;;4426634;32;20065;-58
2024/02/15 03:39:43;;;;;;;4.78;0.70;;;9.60;99.90;;;;;;4418348;32;20065;-58
2024/02/15 03:42:10;;;;;;;0.50;0.50;;;9.60;99.90;;;;;;4428957;32;20138;-57
2024/02/15 03:44:35;;;;;;;0.55;0.55;;;9.60;99.90;;;;;;4426528;32;20524;-59
2024/02/15 03:47:01;;;;;;;0.55;0.55;;;9.70;99.90;;;;;;4425848;32;20081;-58
2024/02/15 03:49:26;;;;;;;0.60;0.60;;;9.60;99.90;;;;;;4429105;32;20076;-58
2024/02/15 03:51:54;;;;;;;0.32;0.32;;;9.60;99.90;;;;;;4425623;32;20081;-58
2024/02/15 03:54:22;;;;;;;0.50;0.50;;;9.60;99.90;;;;;;4420482;32;20085;-58
2024/02/15 03:56:52;;;;;;;0.52;0.52;;;9.60;99.90;;;;;;4418502;32;20085;-56
2024/02/15 03:59:26;;;;;;;1.00;0.88;;;9.60;99.90;;;;;;4410038;32;20106;-59
2024/02/15 04:01:53;;;;;;;0.43;0.43;;;9.60;99.90;;;;;;4401582;32;20097;-58
2024/02/15 04:04:21;;;;;;;0.50;0.50;;;9.60;99.90;;;;;;4412907;32;20446;-59
2024/02/15 04:06:47;;;;;;;1.05;0.98;;;9.70;99.90;;;;;;4415024;32;20595;-58
2024/02/15 04:09:12;;;;;;;0.98;0.70;;;9.70;99.90;;;;;;4420527;32;20065;-59
2024/02/15 04:11:38;;;;;;;1.75;0.60;;;9.70;99.90;;;;;;4417939;32;20073;-57
2024/02/15 04:14:03;;;;;;;0.73;0.65;;;9.70;99.90;;;;;;4416147;32;20423;-59
2024/02/15 04:16:31;;;;;;;0.90;0.90;;;9.60;99.90;;;;;;4414195;32;20468;-58
2024/02/15 04:18:57;;;;;;;0.50;0.50;;;9.70;99.90;;;;;;4415065;32;20189;-57
2024/02/15 04:21:23;;;;;;;0.85;0.73;;;9.70;99.90;;;;;;4418612;32;20077;-59
2024/02/15 04:23:49;;;;;;;1.83;0.77;;;9.70;99.90;;;;;;4419057;32;20591;-58
2024/02/15 04:26:14;;;;;;;0.50;0.50;;;9.70;99.90;;;;;;4415931;32;20163;-59
2024/02/15 04:28:41;;;;;;;0.60;0.60;;;9.70;99.90;;;;;;4414640;32;20072;-60
2024/02/15 04:31:08;;;;;;;0.55;0.55;;;9.70;99.90;;;;;;4417184;32;20093;-58
2024/02/15 04:33:34;;;;;;;0.50;0.50;;;9.70;99.90;;;;;;4417259;32;20065;-58
2024/02/15 04:36:04;;;;;;;0.75;0.68;;;9.70;99.90;;;;;;4417041;32;20077;-59
2024/02/15 04:38:29;;;;;;;2.50;0.98;;;9.70;99.90;;;;;;4417698;32;20573;-60
2024/02/15 04:40:56;;;;;;;0.60;0.60;;;9.70;99.90;;;;;;4416620;32;20136;-59
2024/02/15 04:43:22;;;;;;;1.17;0.73;;;9.70;99.90;;;;;;4417538;32;20061;-58
2024/02/15 04:45:48;;;;;;;1.55;0.73;;;9.80;99.90;;;;;;4413943;32;20078;-59
2024/02/15 04:48:14;;;;;;;0.50;0.50;;;9.80;99.90;;;;;;4415297;32;20301;-58
2024/02/15 04:50:42;;;;;;;0.65;0.65;;;9.80;99.90;;;;;;4417736;32;20113;-58
2024/02/15 04:53:08;;;;;;;1.20;0.75;;;9.70;99.90;;;;;;4425368;32;20556;-58
2024/02/15 04:55:35;;;;;;;0.50;0.50;;;9.70;99.90;;;;;;4427799;32;20217;-60
2024/02/15 04:58:01;;;;;;;0.68;0.68;;;9.70;99.90;;;;;;4423378;32;20516;-58
2024/02/15 05:00:26;;;;;;;0.43;0.43;;;9.70;99.90;;;;;;4420871;32;20086;-59
2024/02/15 05:02:52;;;;;;;0.75;0.65;;;9.70;99.90;;;;;;4415477;32;20093;-59
2024/02/15 05:05:17;;;;;;;0.40;0.40;;;9.80;99.90;;;;;;4430920;32;20115;-58
2024/02/15 05:07:43;;;;;;;1.75;0.82;;;9.80;99.90;;;;;;4423675;32;20127;-57
2024/02/15 05:10:09;;;;;;;0.70;0.70;;;9.80;99.90;;;;;;4417581;32;20410;-59
2024/02/15 05:12:35;;;;;;;0.60;0.60;;;9.80;99.90;;;;;;4404769;32;20588;-59
2024/02/15 05:15:01;;;;;;;0.68;0.68;;;9.80;99.90;;;;;;4418728;32;20152;-57
2024/02/15 05:17:29;;;;;;;0.77;0.77;;;9.70;99.90;;;;;;4429216;32;20109;-58
2024/02/15 05:19:58;;;;;;;0.60;0.60;;;9.70;99.90;;;;;;4427989;32;20124;-59
2024/02/15 05:22:28;;;;;;;0.50;0.50;;;9.70;99.90;;;;;;4415328;32;20084;-58
2024/02/15 05:24:54;;;;;;;0.80;0.80;;;9.70;99.90;;;;;;4425061;32;20520;-59
2024/02/15 05:27:19;;;;;;;2.85;1.02;;;9.80;99.90;;;;;;4426499;32;20623;-59
2024/02/15 05:29:45;;;;;;;0.60;0.60;;;9.80;99.90;;;;;;4428260;32;20158;-57
2024/02/15 05:32:11;;;;;;;0.70;0.70;;;9.80;99.90;;;;;;4422660;32;20072;-59
2024/02/15 05:34:39;;;;;;;0.70;0.70;;;9.80;99.90;;;;;;4430387;32;20084;-58
2024/02/15 05:37:06;;;;;;;1.27;0.98;;;9.80;99.90;;;;;;4420965;32;20093;-58
2024/02/15 05:39:31;;;;;;;2.00;0.90;;;9.80;99.90;;;;;;4425962;32;20493;-58
2024/02/15 05:42:00;;;;;;;0.60;0.60;;;9.80;99.90;;;;;;4417237;32;20069;-58
2024/02/15 05:44:26;;;;;;;0.73;0.73;;;9.80;99.90;;;;;;4428789;32;20081;-59
2024/02/15 05:46:51;;;;;;;1.25;0.62;;;9.90;99.90;;;;;;4429764;32;20072;-58
2024/02/15 05:49:17;;;;;;;0.70;0.70;;;9.90;99.90;;;;;;4432172;32;20065;-59
2024/02/15 05:51:43;;;;;;;1.00;0.80;;;9.90;99.90;;;;;;4424195;32;20081;-59
2024/02/15 05:54:08;;;;;;;10.60;3.10;;;9.90;99.90;;;;;;4416055;32;20726;-57
2024/02/15 05:56:35;;;;;;;3.22;1.70;;;9.90;99.90;;;;;;4426132;32;20100;-58
2024/02/15 05:59:02;;;;;;;0.60;0.60;;;9.90;99.90;;;;;;4414649;32;20060;-59
2024/02/15 06:01:29;;;;;;;0.60;0.60;;;9.90;99.90;;;;;;4425299;32;20078;-59
2024/02/15 06:03:55;;;;;;;3.20;0.60;;;10.00;99.90;;;;;;4430251;32;20077;-58
2024/02/15 06:06:21;;;;;;;0.60;0.60;;;10.00;99.90;;;;;;4400479;32;20805;-57
2024/02/15 06:08:48;;;;;;;0.70;0.70;;;9.90;99.90;;;;;;4417218;32;20557;-57
2024/02/15 06:11:18;;;;;;;0.52;0.52;;;9.80;99.90;;;;;;4399793;32;20715;-57
2024/02/15 06:13:45;;;;;;;0.97;0.87;;;9.80;99.90;;;;;;4409887;32;20081;-58
2024/02/15 06:16:11;;;;;;;0.73;0.70;;;9.80;99.90;;;;;;4417274;32;20066;-58
2024/02/15 06:18:37;;;;;;;6.57;0.65;;;9.90;99.90;;;;;;4423714;32;20184;-56
2024/02/15 06:21:03;;;;;;;0.60;0.60;;;9.90;99.90;;;;;;4419244;32;20085;-57
2024/02/15 06:23:29;;;;;;;0.40;0.40;;;9.90;99.90;;;;;;4427574;32;20093;-57
2024/02/15 06:25:57;;;;;;;0.40;0.40;;;10.00;99.90;;;;;;4390181;32;20142;-57
2024/02/15 06:39:41;;;;;;;1.48;0.50;;;10.00;99.90;;;;;;4400924;32;20446;-59
2024/02/15 06:42:07;;;;;;;0.93;0.82;;;10.00;99.90;;;;;;4411231;32;20388;-58
2024/02/15 06:44:33;;;;;;;0.57;0.57;;;10.00;99.90;;;;;;4416617;32;20119;-57
2024/02/15 06:46:59;;;;;;;1.85;1.15;;;10.00;99.90;;;;;;4421641;32;20077;-57
2024/02/15 06:49:25;;;;;;;5.87;0.62;;;10.00;99.90;;;;;;4412571;32;20105;-59
2024/02/15 06:51:51;;;;;;;1.02;0.93;;;10.10;99.90;;;;;;4399960;32;20069;-59
2024/02/15 06:54:18;;;;;;;1.45;1.05;;;10.10;99.90;;;;;;4385073;32;20073;-58
2024/02/15 06:56:46;;;;;;;0.43;0.43;;;10.10;99.90;;;;;;4390998;32;20623;-59
2024/02/15 06:59:14;;;;;;;2.90;0.60;;;10.10;99.90;;;;;;4381974;32;20122;-60
2024/02/15 07:04:06;;;;;;;0.52;0.52;;;10.10;99.90;;;;;;4385444;32;20073;-60
2024/02/15 07:06:31;;;;;;;0.77;0.77;;;10.20;99.90;;;;;;4385115;32;20504;-57
2024/02/15 07:08:57;;;;;;;0.50;0.50;;;10.10;99.90;;;;;;4384774;32;20105;-58
2024/02/15 07:11:24;;;;;;;0.70;0.70;;;10.10;99.90;;;;;;4384989;32;20410;-58
2024/02/15 07:13:53;;;;;;;0.70;0.70;;;10.10;99.90;;;;;;4389930;32;20129;-59
2024/02/15 07:16:18;;;;;;;0.75;0.75;;;10.20;99.90;;;;;;4383207;32;20651;-59
2024/02/15 07:18:45;;;;;;;0.95;0.80;;;10.20;99.90;;;;;;4384554;32;20114;-58
2024/02/15 07:21:13;;;;;;;1.15;0.85;;;10.20;99.90;;;;;;4378876;32;20092;-57
2024/02/15 07:23:41;;;;;;;1.45;0.85;;;10.20;99.90;;;;;;4376941;32;20441;-57
2024/02/15 07:26:06;;;;;;;0.80;0.80;;;10.20;99.90;;;;;;4387052;32;20856;-58
2024/02/15 07:28:32;;;;;;;1.25;1.15;;;10.20;99.90;;;;;;4376732;32;21112;-58
2024/02/15 07:30:57;;;;;;;2.45;1.05;;;10.30;99.90;;;;;;4367679;32;20120;-58
2024/02/15 07:33:23;;;;;;;1.45;0.70;;;10.30;99.90;;;;;;4357150;32;20117;-56
2024/02/15 07:35:50;;;;;;;0.95;0.85;;;10.30;99.90;;;;;;4375845;32;20077;-58
2024/02/15 07:38:17;;;;;;;0.73;0.73;;;10.30;99.90;;;;;;4359346;32;20124;-58
2024/02/15 07:40:43;;;;;;;0.73;0.73;;;10.30;99.90;;;;;;4379311;32;20081;-58
2024/02/15 07:43:10;;;;;;;0.60;0.60;;;10.30;99.90;;;;;;4383934;32;20132;-58
2024/02/15 07:45:37;;;;;;;0.95;0.60;;;10.30;99.90;;;;;;4389449;32;20085;-55
2024/02/15 07:48:04;;;;;;;0.52;0.52;;;10.30;99.90;;;;;;4393704;32;20189;-58
2024/02/15 07:50:30;;;;;;;0.60;0.60;;;10.30;99.90;;;;;;4390013;32;20135;-59
2024/02/15 07:52:56;;;;;;;0.62;0.62;;;10.40;99.90;;;;;;4362735;32;20086;-58
2024/02/15 07:55:21;;;;;;;0.80;0.80;;;10.40;99.90;;;;;;4362273;32;20093;-56
2024/02/15 07:57:48;;;;;;;0.70;0.70;;;10.40;99.90;;;;;;4370770;32;21583;-57
2024/02/15 08:00:16;;;;;;;0.98;0.90;;;10.40;99.90;;;;;;4379071;32;20590;-56
2024/02/15 08:02:42;;;;;;;1.45;1.17;;;10.40;99.90;;;;;;4370353;32;20104;-57
2024/02/15 08:05:10;;;;;;;0.88;0.82;;;10.50;99.90;;;;;;4359981;32;20591;-59
2024/02/15 08:07:40;;;;;;;0.65;0.60;;;10.50;99.90;;;;;;4365529;32;20105;-60
2024/02/15 08:10:12;;;;;;;0.77;0.77;;;10.50;99.90;;;;;;4385343;32;20081;-60
2024/02/15 08:12:39;;;;;;;0.47;0.47;;;10.60;99.90;;;;;;4380625;32;21308;-59
2024/02/15 08:15:04;;;;;;;1.55;0.70;;;10.60;99.90;;;;;;4361930;32;20237;-57
2024/02/15 08:17:30;;;;;;;0.70;0.70;;;10.60;99.90;;;;;;4377024;32;20790;-58
2024/02/15 08:19:55;;;;;;;0.65;0.65;;;10.60;99.90;;;;;;4379350;32;20090;-58
2024/02/15 08:22:23;;;;;;;0.45;0.45;;;10.70;99.90;;;;;;4384408;32;20096;-61
2024/02/15 08:24:52;;;;;;;1.17;0.90;;;10.70;99.90;;;;;;4365004;32;20127;-59
2024/02/15 08:27:17;;;;;;;0.50;0.50;;;10.80;99.90;;;;;;4372969;32;20742;-57
2024/02/15 08:29:43;;;;;;;0.40;0.40;;;10.80;99.90;;;;;;4385194;32;21072;-57
2024/02/15 08:32:08;;;;;;;0.40;0.40;;;10.70;99.90;;;;;;4388422;32;20628;-56
2024/02/15 08:34:34;;;;;;;0.50;0.50;;;10.80;99.90;;;;;;4382190;32;20185;-58
2024/02/15 08:36:59;;;;;;;3.08;0.77;;;10.80;99.90;;;;;;4386655;32;20085;-56
2024/02/15 08:39:25;;;;;;;0.50;0.50;;;10.80;99.90;;;;;;4394940;32;20260;-57
2024/02/15 08:41:53;;;;;;;0.50;0.50;;;10.80;99.90;;;;;;4401638;32;20088;-61
2024/02/15 08:44:19;;;;;;;0.65;0.65;;;10.90;99.90;;;;;;4388920;32;20144;-58
2024/02/15 08:46:44;;;;;;;1.65;0.93;;;10.80;99.90;;;;;;4393856;32;20312;-57
2024/02/15 08:49:13;;;;;;;1.02;0.82;;;10.80;99.90;;;;;;4374534;32;21126;-57
2024/02/15 08:51:39;;;;;;;0.62;0.62;;;10.90;99.90;;;;;;4373631;32;20110;-57
2024/02/15 08:54:04;;;;;;;0.50;0.50;;;10.80;99.90;;;;;;4388413;32;20727;-59
2024/02/15 08:56:30;;;;;;;0.70;0.62;;;10.80;99.90;;;;;;4385204;32;20114;-58
2024/02/15 08:58:57;;;;;;;1.02;0.80;;;10.90;99.90;;;;;;4379257;32;20533;-58
2024/02/15 09:01:23;;;;;;;0.73;0.62;;;10.90;99.90;;;;;;4376511;32;20361;-59
2024/02/15 09:03:49;;;;;;;0.50;0.50;;;11.00;99.90;;;;;;4388691;32;20090;-58
2024/02/15 09:06:14;;;;;;;0.95;0.75;;;11.10;99.90;;;;;;4392387;32;20797;-59
2024/02/15 09:08:40;;;;;;;1.27;1.08;;;11.10;99.90;;;;;;4378538;32;20171;-61
2024/02/15 09:11:05;;;;;;;0.65;0.65;;;11.10;99.90;;;;;;4389560;32;20417;-59
2024/02/15 09:13:33;;;;;;;0.50;0.50;;;11.20;99.90;;;;;;4393504;32;20816;-58
2024/02/15 09:15:59;;;;;;;0.50;0.50;;;11.20;99.90;;;;;;4400451;32;20411;-58
2024/02/15 09:18:24;;;;;;;0.70;0.70;;;11.20;99.90;;;;;;4400422;32;20566;-57
2024/02/15 09:20:55;;;;;;;1.17;0.90;;;11.30;99.90;;;;;;4401557;32;20109;-58
2024/02/15 09:23:23;;;;;;;2.20;0.73;;;11.30;99.90;;;;;;4388608;32;20785;-61
2024/02/15 09:25:51;;;;;;;0.85;0.70;;;11.30;99.90;;;;;;4390014;32;20517;-59
2024/02/15 09:28:21;;;;;;;1.42;1.10;;;11.30;99.90;;;;;;4371457;32;20116;-60
2024/02/15 09:30:47;;;;;;;0.73;0.70;;;11.40;99.90;;;;;;4383057;32;21221;-59
2024/02/15 09:33:13;;;;;;;0.60;0.60;;;11.40;99.90;;;;;;4379675;32;20840;-60
2024/02/15 09:35:38;;;;;;;12.50;1.80;;;11.40;99.90;;;;;;4361757;32;20144;-59
2024/02/15 09:38:06;;;;;;;0.80;0.80;;;11.40;99.90;;;;;;4378610;32;20137;-59
2024/02/15 09:40:31;;;;;;;0.52;0.52;;;11.40;99.90;;;;;;4386267;32;20106;-60
2024/02/15 09:42:57;;;;;;;1.52;1.08;;;11.40;99.90;;;;;;4396895;32;20596;-59
2024/02/15 09:45:24;;;;;;;0.68;0.60;;;11.40;99.90;;;;;;4375271;32;20073;-59
2024/02/15 09:47:52;;;;;;;0.95;0.95;;;11.40;99.90;;;;;;4397134;32;20101;-60
2024/02/15 09:50:18;;;;;;;0.70;0.70;;;11.40;99.90;;;;;;4371915;32;20086;-59
2024/02/15 09:52:46;;;;;;;0.50;0.47;;;11.50;99.90;;;;;;4396963;32;20101;-60
2024/02/15 09:55:13;;;;;;;0.88;0.60;;;11.50;99.90;;;;;;4388397;32;20611;-59
2024/02/15 09:57:41;;;;;;;2.78;0.75;;;11.50;99.90;;;;;;4374518;32;21096;-61
2024/02/15 10:02:37;;;;;;;0.50;0.50;;;11.60;99.90;;;;;;4390730;32;20566;-63
2024/02/15 10:05:03;;;;;;;1.75;1.05;;;11.60;99.90;;;;;;4367706;32;20161;-61
2024/02/15 10:07:29;;;;;;;0.50;0.50;;;11.70;99.90;;;;;;4398027;32;20196;-60
2024/02/15 10:09:55;;;;;;;0.60;0.60;;;11.70;99.90;;;;;;4393022;32;20754;-60
2024/02/15 10:12:21;;;;;;;1.77;0.70;;;11.70;99.90;;;;;;4378543;32;20101;-57
2024/02/15 10:14:50;;;;;;;0.85;0.85;;;11.70;99.90;;;;;;4378440;32;20093;-58
2024/02/15 10:17:17;;;;;;;0.95;0.60;;;11.70;99.90;;;;;;4376114;32;20571;-59
2024/02/15 10:19:44;;;;;;;0.68;0.68;;;11.80;99.90;;;;;;4372780;32;20813;-59
2024/02/15 10:22:10;;;;;;;0.73;0.73;;;11.80;99.90;;;;;;4375742;32;20814;-58
2024/02/15 10:24:39;;;;;;;0.60;0.60;;;11.90;99.90;;;;;;4359908;32;20081;-60
2024/02/15 10:27:06;;;;;;;1.25;0.57;;;11.90;99.90;;;;;;4355126;32;21251;-60
2024/02/15 10:29:33;;;;;;;0.50;0.50;;;12.00;99.90;;;;;;4362146;32;20097;-59
2024/02/15 10:32:03;;;;;;;0.50;0.50;;;12.00;99.90;;;;;;4368158;32;20897;-60
2024/02/15 10:34:31;;;;;;;0.70;0.65;;;12.10;99.90;;;;;;4363820;32;20210;-60
2024/02/15 10:37:14;;;;;;;10.38;0.90;;;12.10;99.90;;;;;;4379891;32;20870;-61
2024/02/15 10:39:40;;;;;;;1.55;1.27;;;12.20;99.90;;;;;;4360996;32;27485;-60
2024/02/15 10:42:10;;;;;;;0.50;0.50;;;12.20;99.90;;;;;;4375947;32;20082;-58
2024/02/15 10:44:38;;;;;;;0.43;0.43;;;12.30;99.90;;;;;;4378165;32;21423;-61
2024/02/15 10:47:06;;;;;;;0.50;0.50;;;12.40;99.90;;;;;;4377186;32;20081;-60
2024/02/15 10:49:33;;;;;;;0.50;0.50;;;12.30;99.90;;;;;;4357885;32;20105;-60
2024/02/15 10:52:04;;;;;;;0.40;0.40;;;12.40;99.90;;;;;;4359726;32;20081;-61
2024/02/15 10:54:52;;;;;;;1.55;0.95;;;12.40;99.90;;;;;;4364698;32;21551;-60
2024/02/15 10:57:22;;;;;;;0.50;0.50;;;12.40;99.90;;;;;;4354577;32;20963;-59
2024/02/15 10:59:57;;;;;;;0.50;0.50;;;12.40;99.90;;;;;;4355142;32;20153;-59
2024/02/15 11:02:34;;;;;;;1.25;0.82;;;12.40;99.90;;;;;;4359868;32;20177;-58
2024/02/15 11:05:06;;;;;;;8.77;1.25;;;12.40;99.90;;;;;;4361833;32;20161;-60
2024/02/15 11:07:32;;;;;;;2.40;0.70;;;12.40;99.90;;;;;;4361818;32;20120;-58
2024/02/15 11:09:58;;;;;;;3.72;0.50;;;12.50;99.90;;;;;;4358420;32;20170;-60
2024/02/15 11:12:26;;;;;;;0.40;0.40;;;12.50;99.90;;;;;;4362040;32;20105;-59
2024/02/15 11:14:53;;;;;;;0.40;0.40;;;12.60;99.90;;;;;;4350814;32;20196;-60
2024/02/15 11:17:40;;;;;;;0.50;0.50;;;12.60;99.90;;;;;;4354449;32;20716;-59
2024/02/15 11:20:09;;;;;;;0.40;0.40;;;12.60;99.90;;;;;;4369262;32;20105;-59
2024/02/15 11:22:36;;;;;;;0.85;0.85;;;12.60;99.90;;;;;;4370309;32;20077;-62
2024/02/15 11:25:12;;;;;;;0.43;0.43;;;12.60;99.90;;;;;;4377189;32;20090;-61
2024/02/15 11:27:39;;;;;;;1.20;0.98;;;12.70;99.90;;;;;;4382259;32;20577;-59
2024/02/15 11:30:15;;;;;;;2.17;0.77;;;12.80;99.90;;;;;;4379833;32;20098;-60
2024/02/15 11:32:44;;;;;;;0.40;0.40;;;12.90;99.90;;;;;;4363974;32;20085;-60
2024/02/15 11:35:11;;;;;;;1.02;0.95;;;12.90;99.90;;;;;;4391030;32;20481;-61
2024/02/15 11:37:58;;;;;;;0.98;0.88;;;12.90;99.90;;;;;;4387761;32;20165;-60
2024/02/15 11:40:29;;;;;;;27.77;0.88;;;13.00;99.90;;;;;;4387180;32;20565;-58
2024/02/15 11:42:59;;;;;;;2.67;1.30;;;13.00;99.90;;;;;;4385721;32;20122;-61
2024/02/15 11:45:25;;;;;;;0.50;0.50;;;13.00;99.90;;;;;;4389583;32;20102;-62
2024/02/15 11:47:53;;;;;;;0.40;0.40;;;12.90;99.90;;;;;;4390503;32;20101;-62
2024/02/15 11:50:21;;;;;;;0.50;0.50;;;12.90;99.90;;;;;;4375635;32;20442;-58
2024/02/15 11:52:48;;;;;;;0.50;0.50;;;12.80;99.90;;;;;;4384739;32;160434;-58
2024/02/15 11:55:19;;;;;;;0.77;0.77;;;12.80;99.90;;;;;;4376334;32;20089;-57
2024/02/15 11:58:16;;;;;;;0.60;0.60;;;12.70;99.90;;;;;;4368360;32;20771;-59
2024/02/15 12:18:44;;;;;;;0.62;0.62;;;12.70;99.90;;;;;;4377631;32;20089;-59
2024/02/15 12:20:14;;;;;;;1.45;1.05;;;12.70;99.90;;;;;;4374896;32;20118;-59
2024/02/15 12:22:44;;;;;;;0.60;0.57;;;12.70;99.90;;;;;;4388908;32;20204;-58
2024/02/15 12:25:15;;;;;;;2.53;0.88;;;12.70;99.90;;;;;;4372920;32;20136;-59
2024/02/15 12:27:43;;;;;;;0.45;0.45;;;12.80;99.90;;;;;;4396122;32;20105;-58
2024/02/15 12:30:13;;;;;;;1.00;0.93;;;12.80;99.90;;;;;;4372001;32;20986;-57
2024/02/15 12:32:39;;;;;;;;;;;12.90;99.90;;;;;;4378276;32;20867;-59
2024/02/15 12:35:22;;;;;;;0.70;0.70;;;12.90;99.90;;;;;;4398088;32;20058;-63
2024/02/15 12:38:08;;;;;;;0.40;0.40;;;13.10;99.90;;;;;;4378403;32;21252;-59
2024/02/15 12:40:36;;;;;;;0.50;0.50;;;13.10;99.90;;;;;;4394729;32;20090;-57
2024/02/15 12:43:05;;;;;;;0.50;0.50;;;13.10;99.90;;;;;;4370365;32;20109;-58
2024/02/15 12:45:32;;;;;;;0.50;0.50;;;13.20;99.90;;;;;;4399343;32;20105;-56
2024/02/15 12:47:58;;;;;;;0.40;0.40;;;13.30;99.90;;;;;;4395781;32;20752;-59
2024/02/15 12:50:28;;;;;;;0.70;0.70;;;13.30;99.90;;;;;;4386631;32;20072;-58
2024/02/15 12:52:55;;;;;;;0.60;0.60;;;13.40;99.90;;;;;;4388136;32;20136;-59
2024/02/15 12:55:24;;;;;;;0.60;0.60;;;13.50;99.90;;;;;;4390888;32;20053;-59
2024/02/15 12:57:52;;;;;;;5.82;0.73;;;13.60;99.90;;;;;;4377624;32;20168;-57
2024/02/15 13:00:20;;;;;;;0.50;0.50;;;13.70;99.90;;;;;;4391619;32;20081;-59
2024/02/15 13:02:49;;;;;;;0.50;0.50;;;13.60;99.90;;;;;;4394428;32;20629;-59
2024/02/15 13:05:18;;;;;;;0.50;0.50;;;13.70;99.90;;;;;;4393184;32;20069;-58
2024/02/15 13:07:46;;;;;;;0.60;0.60;;;13.70;99.90;;;;;;4394219;32;20098;-59
2024/02/15 13:10:11;;;;;;;0.40;0.40;;;13.70;99.90;;;;;;4404015;32;20136;-59
2024/02/15 13:12:37;;;;;;;0.57;0.57;;;13.70;99.90;;;;;;4394217;32;20085;-58
2024/02/15 13:15:06;;;;;;;0.43;0.43;;;13.70;99.90;;;;;;4379285;32;20085;-62
2024/02/15 13:17:31;;;;;;;0.60;0.60;;;13.70;99.90;;;;;;4380430;32;20109;-58
2024/02/15 13:20:04;;;;;;;0.60;0.60;;;13.70;99.90;;;;;;4387755;32;20082;-59
2024/02/15 13:22:31;;;;;;;0.40;0.40;;;13.80;99.90;;;;;;4388395;32;20663;-57
2024/02/15 13:24:57;;;;;;;0.32;0.32;;;13.80;99.90;;;;;;4384391;32;20081;-61
2024/02/15 13:27:23;;;;;;;0.50;0.50;;;13.80;99.90;;;;;;4399070;32;20369;-59